Time;durP1;ratioP1;P1;durP2;ratioP2;P2;SDS_P1;SDS_P2;PMS_P1;PMS_P2;Temp;Humidity;BMP_temperature;BMP_pressure;BME280_temperature;BME280_humidity;BME280_pressure;Samples;Min_cycle;Max_cycle;Signal;HPM_P1;HPM_P2
2023/06/14 00:01:45;;;;;;;2.10;1.57;;;13.10;54.60;;;;;;5016759;28;20416;-70
2023/06/14 00:04:12;;;;;;;0.67;0.67;;;12.90;54.10;;;;;;5016431;28;20245;-71
2023/06/14 00:06:38;;;;;;;1.10;1.10;;;12.80;54.40;;;;;;5016660;28;20442;-70
2023/06/14 00:09:04;;;;;;;3.70;1.03;;;12.80;55.10;;;;;;5016372;28;20948;-70
2023/06/14 00:11:31;;;;;;;0.93;0.93;;;12.80;56.10;;;;;;5016636;28;20194;-70
2023/06/14 00:13:57;;;;;;;1.43;1.17;;;12.80;54.90;;;;;;5016326;28;20766;-71
2023/06/14 00:16:23;;;;;;;0.93;0.90;;;12.90;54.90;;;;;;5016730;28;20489;-71
2023/06/14 00:18:48;;;;;;;0.60;0.60;;;12.90;55.60;;;;;;5016516;28;20465;-70
2023/06/14 00:21:14;;;;;;;0.70;0.70;;;12.80;55.20;;;;;;5016410;28;20177;-71
2023/06/14 00:23:40;;;;;;;1.00;1.00;;;12.80;54.80;;;;;;5015984;28;20236;-69
2023/06/14 00:26:06;;;;;;;1.97;1.87;;;;;;;;;;5016127;28;20289;-70
2023/06/14 00:28:31;;;;;;;0.93;0.93;;;12.80;55.10;;;;;;5016224;28;20422;-71
2023/06/14 00:30:57;;;;;;;1.60;1.50;;;12.70;56.10;;;;;;5016130;28;20406;-70
2023/06/14 00:33:23;;;;;;;0.73;0.70;;;12.70;55.60;;;;;;5015918;28;20183;-70
2023/06/14 00:35:48;;;;;;;4.37;2.93;;;12.60;55.80;;;;;;5016122;28;20183;-70
2023/06/14 00:38:14;;;;;;;1.70;1.60;;;12.60;55.40;;;;;;5015973;28;20198;-70
2023/06/14 00:40:40;;;;;;;2.50;0.80;;;;;;;;;;5015792;28;20186;-71
2023/06/14 00:43:05;;;;;;;1.17;1.17;;;12.40;55.80;;;;;;5015709;28;20173;-70
2023/06/14 00:45:35;;;;;;;1.47;1.37;;;12.40;56.60;;;;;;5015766;28;20553;-71
2023/06/14 00:48:06;;;;;;;0.63;0.63;;;12.40;56.30;;;;;;5015515;28;20636;-71
2023/06/14 00:50:33;;;;;;;1.70;1.60;;;12.30;55.60;;;;;;5015926;28;20394;-71
2023/06/14 00:53:00;;;;;;;0.80;0.80;;;12.30;56.50;;;;;;5015530;28;20406;-71
2023/06/14 00:55:26;;;;;;;3.53;0.80;;;12.30;56.70;;;;;;5015558;28;20832;-70
2023/06/14 00:57:54;;;;;;;1.03;0.93;;;12.20;56.90;;;;;;5015481;28;20442;-71
2023/06/14 01:00:19;;;;;;;1.10;1.07;;;12.10;56.90;;;;;;5015493;28;20422;-70
2023/06/14 01:02:45;;;;;;;1.90;0.83;;;12.10;57.30;;;;;;5015425;28;20463;-71
2023/06/14 01:05:12;;;;;;;0.83;0.80;;;12.00;57.00;;;;;;5015461;28;20201;-71
2023/06/14 01:07:51;;;;;;;1.43;1.33;;;12.00;77.90;;;;;;5015512;28;20173;-70
2023/06/14 01:10:32;;;;;;;2.77;1.47;;;11.90;56.90;;;;;;5015362;28;20765;-70
2023/06/14 01:13:02;;;;;;;4.33;1.23;;;11.90;57.40;;;;;;5015087;28;20410;-71
2023/06/14 01:15:30;;;;;;;0.97;0.93;;;11.90;57.70;;;;;;5015479;28;20492;-70
2023/06/14 01:18:02;;;;;;;1.00;0.90;;;11.90;58.00;;;;;;5015064;28;20434;-71
2023/06/14 01:20:32;;;;;;;2.30;0.80;;;11.80;57.80;;;;;;5015263;28;20394;-70
2023/06/14 01:22:59;;;;;;;1.27;1.00;;;11.80;56.40;;;;;;5015002;28;20930;-71
2023/06/14 01:25:26;;;;;;;0.90;0.90;;;11.80;56.30;;;;;;5014999;28;20498;-69
2023/06/14 01:27:53;;;;;;;2.70;1.03;;;11.80;57.20;;;;;;5015009;28;20191;-71
2023/06/14 01:30:21;;;;;;;0.60;0.60;;;11.80;57.90;;;;;;5014915;28;20485;-71
2023/06/14 01:32:47;;;;;;;1.20;1.20;;;11.80;57.70;;;;;;5014734;28;20891;-71
2023/06/14 01:35:13;;;;;;;1.80;0.90;;;11.90;58.80;;;;;;5015048;28;20433;-71
2023/06/14 01:37:41;;;;;;;0.60;0.60;;;11.80;58.00;;;;;;5014790;28;20957;-70
2023/06/14 01:40:10;;;;;;;1.33;1.07;;;11.90;58.10;;;;;;5014793;28;20202;-70
2023/06/14 01:42:38;;;;;;;1.80;0.95;;;11.90;57.50;;;;;;5014681;28;20868;-71
2023/06/14 01:45:05;;;;;;;2.80;1.57;;;11.90;58.20;;;;;;5014773;28;20206;-70
2023/06/14 01:47:32;;;;;;;0.70;0.70;;;11.80;79.00;;;;;;5029691;28;20461;-70
2023/06/14 01:49:58;;;;;;;1.60;1.50;;;11.90;58.20;;;;;;5014656;28;20671;-71
2023/06/14 01:52:24;;;;;;;0.73;0.73;;;11.90;56.70;;;;;;5013866;28;20262;-69
2023/06/14 01:54:52;;;;;;;0.70;0.70;;;11.90;56.90;;;;;;5014679;28;20176;-70
2023/06/14 01:57:17;;;;;;;1.00;0.80;;;12.00;56.70;;;;;;5014612;28;20476;-70
2023/06/14 01:59:48;;;;;;;1.93;1.83;;;;;;;;;;5014309;28;20465;-70
2023/06/14 02:02:14;;;;;;;1.47;1.47;;;12.00;56.10;;;;;;5014561;28;20175;-70
2023/06/14 02:04:40;;;;;;;0.50;0.50;;;12.00;57.60;;;;;;5014316;28;20948;-71
2023/06/14 02:07:06;;;;;;;0.60;0.60;;;11.90;56.00;;;;;;5014583;28;20413;-71
2023/06/14 02:09:31;;;;;;;1.30;1.20;;;11.90;56.60;;;;;;5014250;28;20195;-70
2023/06/14 02:11:57;;;;;;;0.77;0.77;;;11.90;57.60;;;;;;5014240;28;20179;-71
2023/06/14 02:14:23;;;;;;;0.73;0.70;;;11.80;57.90;;;;;;5014236;28;20171;-71
2023/06/14 02:16:48;;;;;;;1.23;1.23;;;11.70;57.20;;;;;;5014173;28;20628;-72
2023/06/14 02:19:17;;;;;;;0.57;0.50;;;11.70;57.60;;;;;;5014083;28;20478;-72
2023/06/14 02:21:44;;;;;;;4.23;1.80;;;11.70;58.30;;;;;;5013808;28;20187;-71
2023/06/14 02:24:10;;;;;;;2.20;1.10;;;11.80;57.20;;;;;;5013064;28;20489;-70
2023/06/14 02:26:37;;;;;;;0.90;0.80;;;11.80;56.60;;;;;;5013575;28;20445;-70
2023/06/14 02:29:05;;;;;;;1.37;1.27;;;11.80;58.20;;;;;;5013960;28;20464;-71
2023/06/14 02:31:31;;;;;;;0.90;0.90;;;11.80;57.60;;;;;;5013968;28;20409;-70
2023/06/14 02:33:56;;;;;;;1.20;1.17;;;11.60;58.00;;;;;;5013854;28;20767;-71
2023/06/14 02:36:22;;;;;;;0.90;0.90;;;11.50;58.40;;;;;;5013896;28;20420;-71
2023/06/14 02:38:47;;;;;;;0.60;0.60;;;11.50;58.90;;;;;;5013951;28;20196;-70
2023/06/14 02:41:13;;;;;;;1.00;1.00;;;11.30;59.00;;;;;;5013945;28;20211;-71
2023/06/14 02:43:39;;;;;;;0.73;0.60;;;11.30;59.20;;;;;;5013594;28;20229;-71
2023/06/14 02:46:04;;;;;;;0.87;0.80;;;11.40;60.20;;;;;;5014016;28;20525;-70
2023/06/14 02:48:30;;;;;;;1.70;1.60;;;11.30;59.50;;;;;;5013607;28;20211;-70
2023/06/14 02:50:56;;;;;;;1.77;1.67;;;11.40;59.60;;;;;;5013867;28;20176;-70
2023/06/14 02:53:22;;;;;;;0.60;0.60;;;11.40;58.40;;;;;;5013573;28;20259;-71
2023/06/14 02:55:48;;;;;;;0.93;0.93;;;11.40;59.30;;;;;;5013786;28;20266;-70
2023/06/14 02:58:14;;;;;;;0.40;0.40;;;11.40;59.30;;;;;;5013744;28;20194;-70
2023/06/14 03:00:40;;;;;;;0.93;0.93;;;11.50;57.70;;;;;;5013682;28;20406;-69
2023/06/14 03:03:13;;;;;;;0.85;0.85;;;11.50;58.10;;;;;;5014261;28;20533;-70
2023/06/14 03:05:45;;;;;;;1.25;1.15;;;11.40;57.70;;;;;;5017715;28;20203;-71
2023/06/14 03:08:16;;;;;;;0.85;0.85;;;11.40;58.10;;;;;;5017804;28;20214;-71
2023/06/14 03:10:43;;;;;;;1.75;1.48;;;11.40;58.20;;;;;;5017522;28;20167;-69
2023/06/14 03:13:10;;;;;;;0.40;0.40;;;11.40;58.90;;;;;;5017467;28;20182;-70
2023/06/14 03:15:36;;;;;;;0.60;0.60;;;11.30;58.70;;;;;;5017714;28;20267;-69
2023/06/14 03:18:03;;;;;;;0.60;0.60;;;11.30;58.20;;;;;;5016068;28;20294;-71
2023/06/14 03:20:32;;;;;;;3.50;0.98;;;11.20;59.40;;;;;;5017378;28;20414;-70
2023/06/14 03:22:59;;;;;;;1.60;1.50;;;11.10;59.60;;;;;;5017250;28;20175;-71
2023/06/14 03:25:25;;;;;;;0.90;0.90;;;11.10;61.10;;;;;;5017179;28;20195;-71
2023/06/14 03:27:51;;;;;;;1.85;1.75;;;11.00;61.40;;;;;;5017419;28;20270;-69
2023/06/14 03:30:17;;;;;;;0.60;0.40;;;11.10;61.50;;;;;;5017301;28;20171;-70
2023/06/14 03:32:43;;;;;;;0.87;0.87;;;11.10;61.30;;;;;;5017151;28;20178;-70
2023/06/14 03:35:09;;;;;;;0.60;0.60;;;11.10;60.50;;;;;;5017242;28;20705;-70
2023/06/14 03:37:35;;;;;;;0.55;0.55;;;11.20;83.80;;;;;;5017164;28;20258;-71
2023/06/14 03:40:01;;;;;;;2.97;0.80;;;11.10;61.20;;;;;;5017013;28;20262;-70
2023/06/14 03:42:26;;;;;;;0.50;0.50;;;11.10;59.90;;;;;;5016807;28;20179;-70
2023/06/14 03:44:52;;;;;;;2.50;2.07;;;11.00;60.30;;;;;;5016926;28;20212;-71
2023/06/14 03:47:17;;;;;;;0.50;0.50;;;11.00;61.60;;;;;;5015536;28;20643;-70
2023/06/14 03:49:43;;;;;;;1.13;1.10;;;11.10;62.50;;;;;;5016997;28;20227;-71
2023/06/14 03:52:09;;;;;;;0.60;0.60;;;11.10;62.70;;;;;;5016621;28;20171;-70
2023/06/14 03:54:35;;;;;;;0.80;0.80;;;11.10;64.10;;;;;;5016644;28;20186;-70
2023/06/14 03:57:00;;;;;;;0.87;0.67;;;11.20;61.50;;;;;;5016850;28;20172;-70
2023/06/14 03:59:26;;;;;;;0.80;0.80;;;11.30;62.20;;;;;;5016828;28;20690;-71
2023/06/14 04:01:53;;;;;;;1.50;0.75;;;11.30;63.60;;;;;;5016729;28;20584;-71
2023/06/14 04:04:19;;;;;;;5.07;1.00;;;11.30;64.60;;;;;;5016274;28;20207;-71
2023/06/14 04:06:48;;;;;;;0.40;0.40;;;11.30;63.70;;;;;;5016593;28;20225;-71
2023/06/14 04:09:13;;;;;;;1.08;1.08;;;11.20;64.20;;;;;;5016719;28;20438;-70
2023/06/14 04:11:39;;;;;;;1.53;1.43;;;11.10;65.10;;;;;;5016696;28;20175;-70
2023/06/14 04:14:05;;;;;;;0.40;0.40;;;11.10;66.10;;;;;;5016530;28;20238;-71
2023/06/14 04:16:31;;;;;;;0.93;0.70;;;11.10;66.30;;;;;;5015817;28;20176;-71
2023/06/14 04:18:57;;;;;;;0.50;0.50;;;11.00;66.40;;;;;;5016246;28;20202;-71
2023/06/14 04:21:23;;;;;;;1.45;1.35;;;11.00;66.90;;;;;;5016276;28;20405;-70
2023/06/14 04:23:52;;;;;;;0.43;0.43;;;11.00;68.00;;;;;;5015948;28;20643;-71
2023/06/14 04:26:19;;;;;;;0.50;0.50;;;11.20;66.50;;;;;;5015047;28;20635;-70
2023/06/14 04:28:46;;;;;;;1.03;1.03;;;11.70;67.20;;;;;;5016062;28;20426;-71
2023/06/14 04:31:12;;;;;;;0.60;0.60;;;12.20;66.90;;;;;;5016073;28;20496;-71
2023/06/14 04:33:46;;;;;;;2.40;1.70;;;12.70;65.80;;;;;;5015913;28;20488;-70
2023/06/14 04:36:12;;;;;;;1.13;1.03;;;13.40;64.10;;;;;;5016085;28;20187;-71
2023/06/14 04:38:38;;;;;;;1.37;1.27;;;14.30;61.90;;;;;;5015908;28;20432;-71
2023/06/14 04:41:04;;;;;;;1.37;0.73;;;14.90;58.60;;;;;;5015869;28;20408;-70
2023/06/14 04:43:31;;;;;;;1.40;1.33;;;15.20;57.80;;;;;;5015649;28;20760;-71
2023/06/14 04:45:57;;;;;;;1.23;0.93;;;15.20;57.60;;;;;;5015862;28;20461;-71
2023/06/14 04:48:23;;;;;;;0.80;0.80;;;15.30;57.80;;;;;;5015557;28;20452;-72
2023/06/14 04:50:52;;;;;;;0.93;0.93;;;15.30;57.00;;;;;;5015778;28;20171;-71
2023/06/14 04:53:21;;;;;;;2.40;1.30;;;15.40;56.80;;;;;;5015455;28;20218;-72
2023/06/14 04:55:48;;;;;;;1.27;1.27;;;15.70;54.00;;;;;;5015767;28;20417;-70
2023/06/14 04:58:13;;;;;;;0.80;0.80;;;15.90;54.70;;;;;;5015643;28;20941;-71
2023/06/14 05:00:39;;;;;;;1.43;0.80;;;15.90;54.70;;;;;;5015546;28;20402;-71
2023/06/14 05:03:05;;;;;;;2.40;2.00;;;15.80;53.60;;;;;;5015563;28;20529;-71
2023/06/14 05:05:31;;;;;;;1.63;1.53;;;15.80;53.60;;;;;;5015464;28;20314;-71
2023/06/14 05:07:57;;;;;;;0.90;0.90;;;15.90;54.00;;;;;;5015383;28;20793;-71
2023/06/14 05:10:24;;;;;;;1.67;1.00;;;15.90;53.30;;;;;;5014061;28;20426;-72
2023/06/14 05:12:50;;;;;;;0.83;0.83;;;15.90;53.50;;;;;;5015210;28;20406;-72
2023/06/14 05:15:16;;;;;;;0.60;0.60;;;16.10;54.20;;;;;;5015269;28;20413;-71
2023/06/14 05:17:42;;;;;;;3.10;2.17;;;16.30;53.60;;;;;;5015059;28;20187;-71
2023/06/14 05:20:10;;;;;;;1.03;1.03;;;16.50;54.60;;;;;;5015453;28;20202;-71
2023/06/14 05:22:36;;;;;;;0.90;0.60;;;16.60;55.10;;;;;;5013877;28;20426;-71
2023/06/14 05:25:05;;;;;;;1.07;0.80;;;16.50;52.90;;;;;;5014833;28;20470;-71
2023/06/14 05:27:31;;;;;;;0.60;0.60;;;16.70;72.40;;;;;;5012909;28;20910;-71
2023/06/14 05:30:00;;;;;;;1.00;1.00;;;16.40;54.90;;;;;;5014789;28;20417;-71
2023/06/14 05:32:33;;;;;;;0.53;0.50;;;16.50;55.10;;;;;;5029130;28;20937;-71
2023/06/14 05:34:58;;;;;;;0.70;0.70;;;16.50;54.30;;;;;;5015038;28;20405;-72
2023/06/14 05:37:24;;;;;;;0.73;0.70;;;17.00;73.40;;;;;;5014838;28;20410;-71
2023/06/14 05:39:50;;;;;;;0.40;0.40;;;16.90;55.70;;;;;;5014789;28;20175;-72
2023/06/14 05:42:15;;;;;;;1.10;1.07;;;17.20;54.30;;;;;;5014546;28;20581;-70
2023/06/14 05:44:41;;;;;;;2.30;0.90;;;17.40;48.50;;;;;;5014639;28;20207;-71
2023/06/14 05:47:06;;;;;;;0.70;0.67;;;17.70;50.40;;;;;;5014642;28;20652;-72
2023/06/14 05:49:32;;;;;;;1.27;1.17;;;17.90;46.50;;;;;;5014654;28;20281;-72
2023/06/14 05:51:58;;;;;;;1.23;1.23;;;18.10;46.20;;;;;;5014799;28;20172;-70
2023/06/14 05:54:23;;;;;;;0.60;0.60;;;18.30;52.00;;;;;;5014279;28;20580;-72
2023/06/14 05:56:49;;;;;;;0.77;0.77;;;18.50;51.80;;;;;;5014542;28;20190;-72
2023/06/14 05:59:14;;;;;;;0.90;0.90;;;18.60;48.40;;;;;;5014430;28;20206;-71
2023/06/14 06:01:40;;;;;;;1.47;1.27;;;18.70;49.40;;;;;;5014521;28;20222;-72
2023/06/14 06:04:06;;;;;;;1.30;1.20;;;19.00;49.10;;;;;;5014291;28;20198;-71
2023/06/14 06:06:32;;;;;;;0.90;0.90;;;19.20;46.00;;;;;;5014472;28;20539;-71
2023/06/14 06:08:58;;;;;;;1.70;0.87;;;19.70;44.40;;;;;;5014190;28;20189;-71
2023/06/14 06:11:24;;;;;;;0.70;0.67;;;20.20;43.60;;;;;;5014671;28;20770;-72
2023/06/14 06:13:50;;;;;;;1.03;0.70;;;21.10;41.50;;;;;;5014122;28;20269;-71
2023/06/14 06:16:16;;;;;;;1.70;1.23;;;22.10;41.60;;;;;;5014270;28;20486;-72
2023/06/14 06:18:41;;;;;;;2.37;1.33;;;23.10;40.00;;;;;;5012924;28;20658;-72
2023/06/14 06:21:07;;;;;;;3.70;1.57;;;24.10;38.80;;;;;;5014391;28;20164;-71
2023/06/14 06:23:33;;;;;;;0.80;0.80;;;25.40;37.20;;;;;;5013866;28;20564;-70
2023/06/14 06:25:58;;;;;;;0.80;0.50;;;27.00;34.50;;;;;;5013827;28;20242;-71
2023/06/14 06:28:24;;;;;;;1.03;1.03;;;28.20;33.20;;;;;;5013981;28;20604;-72
2023/06/14 06:30:50;;;;;;;0.83;0.83;;;29.40;31.70;;;;;;5014036;28;20168;-72
2023/06/14 06:33:16;;;;;;;0.70;0.70;;;30.50;29.70;;;;;;5013683;28;20172;-72
2023/06/14 06:35:42;;;;;;;1.47;0.80;;;31.10;29.50;;;;;;5013915;28;20517;-71
2023/06/14 06:38:09;;;;;;;1.27;0.90;;;31.80;29.70;;;;;;5013766;28;20606;-71
2023/06/14 06:40:36;;;;;;;1.33;0.80;;;32.70;28.70;;;;;;5013954;28;20905;-71
2023/06/14 06:43:02;;;;;;;0.73;0.63;;;33.40;28.20;;;;;;5013721;28;20403;-70
2023/06/14 06:45:28;;;;;;;1.07;0.70;;;32.90;26.60;;;;;;5013690;28;20497;-72
2023/06/14 06:47:55;;;;;;;1.20;0.70;;;33.00;28.00;;;;;;5013594;28;20477;-73
2023/06/14 06:50:23;;;;;;;1.00;0.70;;;32.70;27.00;;;;;;5013874;28;20163;-72
2023/06/14 06:52:48;;;;;;;1.13;1.03;;;31.60;27.00;;;;;;5013660;28;20410;-72
2023/06/14 06:55:14;;;;;;;1.40;0.80;;;31.00;27.60;;;;;;5012949;28;20406;-72
2023/06/14 06:57:40;;;;;;;0.60;0.60;;;30.50;36.60;;;;;;5013629;28;20546;-72
2023/06/14 07:00:09;;;;;;;1.13;0.90;;;30.30;27.60;;;;;;5014061;28;20175;-73
2023/06/14 07:02:35;;;;;;;1.60;1.50;;;30.10;28.80;;;;;;5013202;28;20179;-73
2023/06/14 07:05:01;;;;;;;1.57;1.17;;;30.50;28.80;;;;;;5012359;28;20995;-73
2023/06/14 07:07:26;;;;;;;1.83;1.73;;;30.70;28.60;;;;;;5013342;28;20167;-72
2023/06/14 07:09:52;;;;;;;1.17;0.90;;;30.30;28.10;;;;;;5013760;28;20175;-72
2023/06/14 07:12:18;;;;;;;1.30;1.30;;;29.80;29.00;;;;;;5013444;28;20652;-72
2023/06/14 07:14:43;;;;;;;0.90;0.90;;;29.30;28.70;;;;;;5013242;28;20176;-72
2023/06/14 07:17:09;;;;;;;1.37;1.10;;;29.20;31.30;;;;;;5013517;28;20172;-73
2023/06/14 07:19:35;;;;;;;1.13;0.90;;;29.90;30.80;;;;;;5012285;28;20205;-73
2023/06/14 07:22:01;;;;;;;0.63;0.63;;;29.20;29.20;;;;;;5012059;28;20180;-71
2023/06/14 07:24:28;;;;;;;0.70;0.70;;;28.70;29.80;;;;;;5012387;28;20204;-71
2023/06/14 07:26:54;;;;;;;0.93;0.70;;;28.40;30.50;;;;;;5013550;28;20178;-73
2023/06/14 07:29:21;;;;;;;1.43;1.07;;;28.20;30.60;;;;;;5013343;28;20434;-71
2023/06/14 07:31:46;;;;;;;0.83;0.60;;;28.30;30.30;;;;;;5012252;28;20699;-71
2023/06/14 07:34:12;;;;;;;1.03;0.93;;;28.60;31.60;;;;;;5013277;28;20510;-71
2023/06/14 07:36:38;;;;;;;1.00;0.90;;;28.50;29.10;;;;;;5013467;28;20207;-71
2023/06/14 07:39:06;;;;;;;1.03;0.70;;;26.30;30.50;;;;;;5013241;28;20196;-72
2023/06/14 07:41:32;;;;;;;0.70;0.70;;;25.50;32.20;;;;;;5013690;28;20247;-71
2023/06/14 07:43:58;;;;;;;1.13;1.10;;;25.30;32.20;;;;;;5013178;28;20395;-72
2023/06/14 07:46:23;;;;;;;0.70;0.70;;;25.90;31.80;;;;;;5013247;28;20414;-71
2023/06/14 07:48:49;;;;;;;0.73;0.70;;;26.70;30.50;;;;;;5013097;28;20238;-71
2023/06/14 07:51:15;;;;;;;1.10;1.10;;;27.60;30.70;;;;;;5015498;28;20167;-73
2023/06/14 07:53:41;;;;;;;0.93;0.90;;;28.90;29.10;;;;;;5016763;28;20171;-73
2023/06/14 07:56:07;;;;;;;0.50;0.50;;;29.90;28.40;;;;;;5016785;28;20243;-72
2023/06/14 07:58:32;;;;;;;1.23;1.00;;;30.80;28.70;;;;;;5016727;28;20521;-72
2023/06/14 08:00:59;;;;;;;2.20;0.97;;;32.10;28.20;;;;;;5016667;28;20183;-72
2023/06/14 08:03:25;;;;;;;0.93;0.70;;;33.60;26.80;;;;;;5016061;28;20194;-71
2023/06/14 08:05:50;;;;;;;1.90;1.40;;;34.00;25.90;;;;;;5016438;28;20442;-71
2023/06/14 08:08:16;;;;;;;0.80;0.80;;;34.50;24.70;;;;;;5016668;28;20674;-72
2023/06/14 08:10:42;;;;;;;1.37;0.90;;;35.10;24.20;;;;;;5016569;28;20168;-73
2023/06/14 08:13:09;;;;;;;1.70;0.90;;;34.80;24.20;;;;;;5016406;28;20258;-72
2023/06/14 08:15:35;;;;;;;0.70;0.70;;;34.60;24.80;;;;;;5016532;28;20222;-71
2023/06/14 08:18:01;;;;;;;1.50;1.40;;;35.20;24.70;;;;;;5016464;28;20430;-70
2023/06/14 08:20:26;;;;;;;0.93;0.83;;;35.90;24.20;;;;;;5016253;28;20167;-71
2023/06/14 08:22:56;;;;;;;0.90;0.90;;;36.10;23.80;;;;;;5016022;28;20176;-72
2023/06/14 08:25:22;;;;;;;1.33;0.70;;;36.10;22.90;;;;;;5016059;28;20583;-72
2023/06/14 08:27:47;;;;;;;1.03;0.93;;;34.80;24.40;;;;;;5016286;28;20510;-72
2023/06/14 08:30:14;;;;;;;0.90;0.90;;;34.30;24.50;;;;;;5016665;28;20255;-72
2023/06/14 08:32:39;;;;;;;1.07;1.07;;;34.80;24.60;;;;;;5016419;28;20167;-72
2023/06/14 08:35:07;;;;;;;1.40;1.30;;;35.50;24.70;;;;;;5016706;28;20465;-72
2023/06/14 08:37:35;;;;;;;1.00;1.00;;;33.10;33.90;;;;;;5015257;28;20180;-72
2023/06/14 08:40:04;;;;;;;1.13;1.07;;;33.00;25.80;;;;;;5016239;28;20419;-72
2023/06/14 08:42:32;;;;;;;1.90;1.50;;;32.50;25.70;;;;;;5016182;28;20426;-72
2023/06/14 08:44:57;;;;;;;0.80;0.80;;;33.10;26.40;;;;;;5016327;28;20454;-72
2023/06/14 08:47:26;;;;;;;1.53;0.87;;;34.30;26.50;;;;;;5015659;28;20509;-72
2023/06/14 08:49:55;;;;;;;2.27;1.10;;;35.10;25.00;;;;;;5016185;28;20152;-70
2023/06/14 08:52:22;;;;;;;1.00;0.93;;;35.30;25.40;;;;;;5015889;28;20714;-71
2023/06/14 08:54:48;;;;;;;1.17;1.03;;;35.30;24.10;;;;;;5015736;28;20421;-71
2023/06/14 08:57:15;;;;;;;0.97;0.90;;;35.70;25.10;;;;;;5016094;28;20407;-71
2023/06/14 08:59:49;;;;;;;1.23;0.93;;;36.60;25.80;;;;;;5015553;28;20803;-71
2023/06/14 09:02:17;;;;;;;1.00;0.90;;;36.80;24.40;;;;;;5015318;28;20410;-71
2023/06/14 09:04:44;;;;;;;1.10;1.00;;;37.00;24.00;;;;;;5015545;28;20465;-71
2023/06/14 09:07:10;;;;;;;1.20;1.07;;;37.00;23.20;;;;;;5015715;28;20898;-71
2023/06/14 09:09:40;;;;;;;2.37;1.53;;;36.80;24.40;;;;;;5015738;28;20465;-71
2023/06/14 09:12:10;;;;;;;1.17;1.07;;;36.50;23.80;;;;;;5015898;28;20457;-71
2023/06/14 09:14:38;;;;;;;0.80;0.73;;;36.00;24.20;;;;;;5015889;28;20402;-71
2023/06/14 09:17:04;;;;;;;1.07;0.90;;;35.20;26.50;;;;;;5014292;28;20415;-71
2023/06/14 09:19:30;;;;;;;1.33;1.07;;;35.30;24.70;;;;;;5013984;28;20492;-71
2023/06/14 09:21:55;;;;;;;1.50;1.00;;;35.50;25.00;;;;;;5014417;28;20415;-71
2023/06/14 09:24:23;;;;;;;1.93;1.83;;;35.60;23.80;;;;;;5014632;28;20191;-71
2023/06/14 09:26:51;;;;;;;1.90;1.30;;;35.20;24.10;;;;;;5014930;28;20182;-70
2023/06/14 09:29:17;;;;;;;1.07;1.00;;;35.10;25.60;;;;;;5015015;28;20435;-70
2023/06/14 09:31:45;;;;;;;1.60;1.27;;;35.00;25.20;;;;;;5015127;28;20445;-71
2023/06/14 09:34:11;;;;;;;1.50;1.33;;;35.30;27.10;;;;;;5014762;28;20414;-72
2023/06/14 09:36:40;;;;;;;1.87;1.77;;;35.80;24.30;;;;;;5014861;28;20426;-71
2023/06/14 09:39:07;;;;;;;1.43;1.00;;;35.70;23.40;;;;;;5014742;28;20195;-71
2023/06/14 09:41:38;;;;;;;1.60;1.27;;;35.50;24.60;;;;;;5014803;28;20415;-72
2023/06/14 09:44:06;;;;;;;1.70;1.10;;;35.70;24.40;;;;;;5014720;28;20459;-71
2023/06/14 09:46:32;;;;;;;1.30;1.20;;;35.00;24.80;;;;;;5015057;28;20745;-72
2023/06/14 09:48:59;;;;;;;1.53;1.13;;;35.00;26.80;;;;;;5014698;28;20465;-71
2023/06/14 09:51:26;;;;;;;0.63;0.63;;;34.80;24.70;;;;;;5015118;28;20905;-71
2023/06/14 09:53:52;;;;;;;1.33;1.20;;;34.30;25.90;;;;;;5014471;28;20747;-72
2023/06/14 09:56:25;;;;;;;1.20;0.90;;;34.00;27.20;;;;;;5014740;28;20425;-72
2023/06/14 09:58:55;;;;;;;1.17;1.07;;;34.10;26.10;;;;;;5014795;28;20430;-71
2023/06/14 10:01:21;;;;;;;3.03;1.50;;;34.00;25.90;;;;;;5014790;28;20759;-71
2023/06/14 10:03:50;;;;;;;1.20;1.10;;;33.50;25.00;;;;;;5014623;28;20903;-72
2023/06/14 10:06:17;;;;;;;1.07;0.97;;;31.90;26.70;;;;;;5014648;28;20518;-71
2023/06/14 10:08:44;;;;;;;2.10;1.60;;;31.30;27.80;;;;;;5014243;28;20445;-71
2023/06/14 10:11:13;;;;;;;1.43;1.33;;;31.30;29.20;;;;;;5014427;28;20493;-71
2023/06/14 10:13:39;;;;;;;0.97;0.93;;;31.30;29.00;;;;;;5013549;28;20477;-74
2023/06/14 10:16:37;;;;;;;1.07;1.00;;;31.20;28.00;;;;;;5014309;28;20426;-70
2023/06/14 10:19:25;;;;;;;1.60;1.37;;;31.30;28.50;;;;;;5014053;28;20442;-71
2023/06/14 10:21:57;;;;;;;1.17;1.03;;;31.80;26.90;;;;;;5013817;28;20426;-70
2023/06/14 10:24:32;;;;;;;2.03;1.40;;;31.90;28.10;;;;;;5014252;28;20549;-70
2023/06/14 10:27:02;;;;;;;1.00;0.90;;;32.00;27.80;;;;;;5013978;28;20467;-70
2023/06/14 10:29:31;;;;;;;1.60;1.10;;;31.80;27.60;;;;;;5013987;28;20427;-71
2023/06/14 10:31:59;;;;;;;0.97;0.97;;;31.50;29.10;;;;;;5014488;28;20903;-71
2023/06/14 10:34:27;;;;;;;1.10;1.00;;;31.50;28.80;;;;;;5013871;28;20412;-70
2023/06/14 10:37:07;;;;;;;1.20;1.10;;;31.40;28.00;;;;;;5014258;28;20437;-70
2023/06/14 10:39:40;;;;;;;0.83;0.83;;;31.10;29.80;;;;;;5013941;28;20517;-70
2023/06/14 10:42:07;;;;;;;1.47;1.00;;;31.00;28.50;;;;;;5013604;28;20494;-70
2023/06/14 10:44:33;;;;;;;2.10;1.73;;;30.80;28.80;;;;;;5013592;28;20454;-70
2023/06/14 10:47:02;;;;;;;1.27;1.17;;;30.10;29.00;;;;;;5013645;28;20449;-71
2023/06/14 10:49:42;;;;;;;1.00;0.90;;;29.90;28.10;;;;;;5013879;28;20918;-70
2023/06/14 10:52:16;;;;;;;1.60;0.97;;;29.40;28.70;;;;;;5013938;28;20847;-70
2023/06/14 10:55:05;;;;;;;1.30;1.20;;;29.00;30.20;;;;;;5013755;28;20418;-70
2023/06/14 10:57:32;;;;;;;1.67;1.57;;;28.60;34.10;;;;;;5013721;28;20410;-70
2023/06/14 10:59:59;;;;;;;0.90;0.90;;;28.80;30.60;;;;;;5013645;28;20445;-70
2023/06/14 11:02:56;;;;;;;1.20;0.90;;;28.60;31.00;;;;;;5013532;28;20473;-70
2023/06/14 11:05:26;;;;;;;0.87;0.87;;;28.40;30.60;;;;;;5013438;28;20524;-70
2023/06/14 11:08:26;;;;;;;1.03;0.93;;;28.10;31.00;;;;;;5013567;28;20403;-70
2023/06/14 11:10:56;;;;;;;1.17;1.07;;;27.50;29.90;;;;;;5013661;28;20735;-70
2023/06/14 11:13:25;;;;;;;1.30;1.20;;;27.10;33.00;;;;;;5013399;28;20418;-70
2023/06/14 11:15:52;;;;;;;1.97;1.63;;;26.90;32.10;;;;;;5013503;28;20489;-70
2023/06/14 11:18:18;;;;;;;1.27;1.20;;;27.00;33.80;;;;;;5013493;28;20440;-70
2023/06/14 11:20:47;;;;;;;1.53;1.43;;;27.40;35.80;;;;;;5013489;28;20898;-70
2023/06/14 11:23:12;;;;;;;1.53;1.30;;;27.80;32.00;;;;;;5013283;28;20468;-70
2023/06/14 11:25:38;;;;;;;1.07;0.90;;;27.70;33.50;;;;;;5015005;28;20549;-70
2023/06/14 11:28:03;;;;;;;0.90;0.83;;;27.50;30.40;;;;;;5017913;28;20700;-69
2023/06/14 11:30:29;;;;;;;1.63;1.53;;;27.20;30.60;;;;;;5017256;28;20172;-70
2023/06/14 11:32:55;;;;;;;0.97;0.90;;;27.20;31.90;;;;;;5017090;28;20588;-70
2023/06/14 11:35:25;;;;;;;1.87;1.50;;;27.20;30.50;;;;;;5017302;28;20417;-70
2023/06/14 11:37:58;;;;;;;1.60;1.20;;;27.40;32.70;;;;;;5017216;28;20435;-70
2023/06/14 11:40:25;;;;;;;1.20;1.10;;;27.50;34.70;;;;;;5017095;28;20410;-70
2023/06/14 11:42:59;;;;;;;1.27;1.00;;;27.60;32.60;;;;;;5016948;28;20445;-70
2023/06/14 11:45:25;;;;;;;0.77;0.77;;;27.80;32.80;;;;;;5016928;28;20435;-70
2023/06/14 11:47:51;;;;;;;0.83;0.83;;;27.80;34.60;;;;;;5016829;28;20926;-70
2023/06/14 11:50:16;;;;;;;1.00;1.00;;;27.70;31.30;;;;;;5016929;28;20171;-69
2023/06/14 11:52:42;;;;;;;1.17;0.90;;;27.70;32.40;;;;;;5016949;28;20172;-70
2023/06/14 11:55:08;;;;;;;1.60;1.20;;;27.70;32.00;;;;;;5016847;28;20631;-70
2023/06/14 11:57:35;;;;;;;0.90;0.77;;;27.40;41.70;;;;;;5016793;28;20185;-70
2023/06/14 12:00:07;;;;;;;1.53;1.43;;;27.50;31.10;;;;;;5016901;28;20410;-70
2023/06/14 12:02:33;;;;;;;1.20;1.20;;;27.50;31.00;;;;;;5016645;28;20389;-70
2023/06/14 12:05:05;;;;;;;1.17;0.90;;;27.10;30.60;;;;;;5016312;28;20465;-70
2023/06/14 12:07:31;;;;;;;1.10;1.00;;;27.00;36.80;;;;;;5016683;28;20176;-70
2023/06/14 12:09:57;;;;;;;0.80;0.80;;;26.80;31.90;;;;;;5016577;28;20494;-70
2023/06/14 12:12:25;;;;;;;1.07;1.03;;;26.70;32.50;;;;;;5016556;28;20931;-70
2023/06/14 12:14:51;;;;;;;1.30;1.10;;;26.40;33.50;;;;;;5016309;28;20230;-70
2023/06/14 12:17:18;;;;;;;1.27;1.17;;;26.30;32.50;;;;;;5016638;28;20748;-70
2023/06/14 12:19:45;;;;;;;1.50;1.30;;;26.20;32.20;;;;;;5015650;28;20409;-70
2023/06/14 12:22:14;;;;;;;1.23;1.10;;;25.90;32.10;;;;;;5015642;28;20412;-70
2023/06/14 12:24:43;;;;;;;1.20;1.10;;;25.90;34.40;;;;;;5015676;28;20803;-70
2023/06/14 12:27:11;;;;;;;1.40;1.30;;;26.20;34.50;;;;;;5016124;28;20389;-70
2023/06/14 12:29:37;;;;;;;1.43;1.17;;;26.10;34.70;;;;;;5016170;28;20430;-70
2023/06/14 12:32:03;;;;;;;1.37;1.13;;;26.30;33.50;;;;;;5016400;28;20412;-70
2023/06/14 12:34:28;;;;;;;0.93;0.90;;;26.50;32.90;;;;;;5016075;28;20446;-70
2023/06/14 12:36:55;;;;;;;1.07;1.00;;;26.90;32.00;;;;;;5014296;28;20184;-70
2023/06/14 12:39:21;;;;;;;1.07;1.00;;;27.20;33.20;;;;;;5015923;28;20195;-70
2023/06/14 12:41:48;;;;;;;1.50;1.40;;;27.50;31.50;;;;;;5016008;28;20411;-69
2023/06/14 12:44:15;;;;;;;0.93;0.90;;;27.20;31.20;;;;;;5015722;28;20458;-70
2023/06/14 12:46:42;;;;;;;1.13;1.10;;;26.80;32.20;;;;;;5015769;28;20417;-70
2023/06/14 12:49:12;;;;;;;3.20;1.37;;;26.40;31.90;;;;;;5015760;28;20961;-70